Afric Star — A8KJ8 — position and weather

sailwx.info

Track history (hours):
 
Tides and Currents Weather Stations Pressure Air Temp Water Temp Dewpoint Dewpoint Depression Visibility Wind Speed Wind Dir Waves Ship Positions

Afric Star

Last reported at 2016-Jul-10 23:29 UTC. Time now 2016-Jul-28 02:59 UTC.
Position N 36°18' W 030°40'.
Warning: this ship's position is 17 days out of date.

Length 158 m; draft 7.6 m.

Type: Ship (hazmat cat D). MMSI: 636013069.

Date/timePositionNaut miles runAvg speedWind from/ knotsBaromVisibWave heightAir tempDewpointWater temp
2016-Jul-10 23:29N 36°18' W 030°40'1617.1
2016-Jul-10 22:33N 36°25' W 030°23'1716.9
2016-Jul-10 21:33N 36°33' W 030°04'1717.0
2016-Jul-10 20:33N 36°41' W 029°46'1717.2
2016-Jul-10 19:33N 36°49' W 029°26'1717.0
2016-Jul-10 18:33N 36°57' W 029°08'1716.8
2016-Jul-10 17:34N 37°05' W 028°49'1616.3
2016-Jul-10 16:33N 37°12' W 028°31'1616.2
2016-Jul-10 15:33N 37°19' W 028°13'1616.3
2016-Jul-10 14:34N 37°27' W 027°55'1616.4
2016-Jul-10 13:33N 37°35' W 027°37'1616.4
2016-Jul-10 12:33N 37°42' W 027°18'1716.5
2016-Jul-10 11:33N 37°50' W 026°60'1716.6
2016-Jul-10 10:33N 37°58' W 026°41'1616.1
2016-Jul-10 09:33N 38°03' W 026°21'1717.1
2016-Jul-10 08:33N 38°09' W 026°01'1717.4
2016-Jul-10 07:33N 38°16' W 025°41'1716.7
2016-Jul-10 06:33N 38°23' W 025°21'1716.8
2016-Jul-10 05:33N 38°29' W 025°02'1616.4
2016-Jul-10 04:33N 38°36' W 024°42'1616.5
2016-Jul-10 03:33N 38°42' W 024°23'1716.6
2016-Jul-10 02:32N 38°49' W 024°03'  
2016-Jul-07 15:26N 48°27' W 006°26'1716.2
2016-Jul-07 14:25N 48°37' W 006°05'1517.0
2016-Jul-07 13:32N 48°49' W 005°52'1717.5
2016-Jul-07 12:32N 49°00' W 005°32'1515.5
2016-Jul-07 11:33N 49°08' W 005°11'1818.0
2016-Jul-07 10:33N 49°17' W 004°48'2417.3
2016-Jul-07 09:10N 49°29' W 004°16'1016.3
2016-Jul-07 08:33N 49°34' W 004°03'1615.6
2016-Jul-07 07:30N 49°42' W 003°41'1515.7
2016-Jul-07 06:33N 49°49' W 003°21'1716.7
2016-Jul-07 05:33N 49°58' W 002°58'1918.5
2016-Jul-07 04:33N 50°02' W 002°30'2020.5
2016-Jul-07 03:33N 50°08' W 001°59'2120.9
2016-Jul-07 02:33N 50°13' W 001°28'2019.6
2016-Jul-07 01:33N 50°18' W 000°58'1717.3
2016-Jul-07 00:33N 50°23' W 000°32'1616.3
2016-Jul-06 23:33N 50°27' W 000°07'1515.1
2016-Jul-06 22:33N 50°31' E 000°16'1615.0
2016-Jul-06 21:29N 50°36' E 000°40'1617.0
2016-Jul-06 20:32N 50°46' E 001°00'1818.9
2016-Jul-06 19:33N 50°58' E 001°22'1919.0
2016-Jul-06 18:33N 51°12' E 001°43'1716.8
2016-Jul-06 17:33N 51°25' E 001°60'1616.1
2016-Jul-06 16:33N 51°22' E 002°25'1313.0
2016-Jul-06 15:33N 51°24' E 002°46'1212.0
2016-Jul-06 14:34N 51°24' E 003°05'1312.9
2016-Jul-06 13:33N 51°25' E 003°26'10 9.9
2016-Jul-06 12:33N 51°28' E 003°41'1 1.4
2016-Jul-06 11:33N 51°27' E 003°44'0 0.0
2016-Jul-06 10:33N 51°27' E 003°44'0 0.0
2016-Jul-06 09:33N 51°27' E 003°44'0 0.0
2016-Jul-06 08:33N 51°27' E 003°44'0 0.0
2016-Jul-06 07:33N 51°27' E 003°44'0 0.0
2016-Jul-06 06:33N 51°27' E 003°44'0 0.0
2016-Jul-06 05:33N 51°27' E 003°44'1 1.1
2016-Jul-06 04:33N 51°27' E 003°42'6 6.2
2016-Jul-06 03:33N 51°27' E 003°32'1110.8
2016-Jul-06 02:33N 51°36' E 003°22'1010.0
2016-Jul-06 01:33N 51°45' E 003°15'3 2.7
2016-Jul-06 00:29N 51°47' E 003°18'0 0.1
2016-Jul-05 23:32N 51°47' E 003°18'0 0.0
2016-Jul-05 22:29N 51°47' E 003°18'0 0.0
2016-Jul-05 21:20N 51°47' E 003°18'0 0.0
2016-Jul-05 20:23N 51°47' E 003°18'0 0.0
2016-Jul-05 19:26N 51°47' E 003°18'0 0.0
2016-Jul-05 18:29N 51°47' E 003°18'0 0.0
2016-Jul-05 13:14N 51°47' E 003°19'0 0.0
2016-Jul-05 12:29N 51°47' E 003°19'0 0.1
2016-Jul-05 11:32N 51°47' E 003°19'0 0.1
2016-Jul-05 10:26N 51°47' E 003°18'0 0.0
2016-Jul-05 09:29N 51°47' E 003°18'0 0.0
2016-Jul-05 08:32N 51°47' E 003°18'0 0.1
2016-Jul-05 07:32N 51°47' E 003°19'0 0.0
2016-Jul-05 06:23N 51°47' E 003°19'0 0.0
2016-Jul-05 03:26N 51°47' E 003°18'0 0.0
2016-Jul-05 02:14N 51°47' E 003°18'0 0.0
2016-Jul-05 00:08N 51°47' E 003°19'0 0.0
2016-Jul-04 23:17N 51°47' E 003°18'0 0.2
2016-Jul-04 22:32N 51°47' E 003°18'0 0.1
2016-Jul-04 21:32N 51°47' E 003°18'0 0.0
2016-Jul-04 20:32N 51°47' E 003°18'0 0.1
2016-Jul-04 19:32N 51°47' E 003°18'0 0.2
2016-Jul-04 18:29N 51°47' E 003°18'0 0.0
2016-Jul-04 17:17N 51°47' E 003°18'0 0.0
2016-Jul-04 16:32N 51°47' E 003°18'0 0.0
2016-Jul-04 15:32N 51°47' E 003°18'0 0.0
2016-Jul-04 14:32N 51°47' E 003°18'0 0.0
2016-Jul-04 13:32N 51°47' E 003°18'0 0.0
2016-Jul-04 12:17N 51°47' E 003°18'0 0.0
2016-Jul-04 11:26N 51°47' E 003°19'0 0.1
2016-Jul-04 08:32N 51°47' E 003°18'0 0.0
2016-Jul-04 07:23N 51°47' E 003°18'0 0.0
2016-Jul-04 06:32N 51°47' E 003°18'0 0.1
2016-Jul-04 04:29N 51°47' E 003°18'0 0.0
2016-Jul-04 03:32N 51°47' E 003°18'0 0.0
2016-Jul-04 02:11N 51°47' E 003°18'0 0.0
2016-Jul-04 01:32N 51°47' E 003°18'0 0.0
2016-Jul-04 00:32N 51°47' E 003°18'0 0.0
2016-Jul-03 23:29N 51°47' E 003°19'0 0.1
2016-Jul-03 22:26N 51°47' E 003°18'0 0.1
2016-Jul-03 21:29N 51°47' E 003°18'0 0.0
2016-Jul-03 20:32N 51°47' E 003°18'0 0.0
2016-Jul-03 19:32N 51°47' E 003°18'0 0.0
2016-Jul-03 18:26N 51°47' E 003°18'0 0.2
2016-Jul-03 17:32N 51°47' E 003°18'0 0.0
2016-Jul-03 16:32N 51°47' E 003°18'0 0.0
2016-Jul-03 15:32N 51°47' E 003°18'0 0.0
2016-Jul-03 14:32N 51°47' E 003°18'0 0.0
2016-Jul-03 12:25N 51°47' E 003°18'0 0.0
2016-Jul-02 22:04N 51°47' E 003°19'0 0.0
2016-Jul-02 18:19N 51°47' E 003°18'2211.0
2016-Jul-02 16:17N 52°09' E 003°22'6213.0
2016-Jul-02 11:30N 53°03' E 004°13'1415.1
2016-Jul-02 10:33N 53°15' E 004°27'3416.7
2016-Jul-02 08:31N 53°47' E 004°46'1616.7
2016-Jul-02 07:33N 54°02' E 004°56'1716.6
2016-Jul-02 06:33N 54°17' E 005°07'27115.7
2016-Jul-01 13:16N 57°48' E 010°12'1115.9
2016-Jul-01 12:33N 57°49' E 010°34'9 7.3
2016-Jul-01 11:17N 57°39' E 010°36'0 0.2
2016-Jul-01 10:27N 57°40' E 010°36'0 0.0
2016-Jul-01 09:24N 57°40' E 010°36'0 0.0
2016-Jul-01 08:33N 57°40' E 010°36'0 0.0
2016-Jul-01 04:33N 57°40' E 010°36'0 0.0
2016-Jul-01 03:30N 57°40' E 010°36'0 0.0
2016-Jul-01 01:18N 57°40' E 010°36'  
Track history (hours):
 
Tides and Currents Weather Stations Pressure Air Temp Water Temp Dewpoint Dewpoint Depression Visibility Wind Speed Wind Dir Waves Ship Positions

Afric Star

Last reported at 2016-Jul-10 23:29 UTC. Time now 2016-Jul-28 02:59 UTC.
Position N 36°18' W 030°40'.
Warning: this ship's position is 17 days out of date.

Length 158 m; draft 7.6 m.

Type: Ship (hazmat cat D). MMSI: 636013069.

Date/timePositionNaut miles runAvg speedWind from/ knotsBaromVisibWave heightAir tempDewpointWater temp
2016-Jul-10 23:29N 36°18' W 030°40'1617.1
2016-Jul-10 22:33N 36°25' W 030°23'1716.9
2016-Jul-10 21:33N 36°33' W 030°04'1717.0
2016-Jul-10 20:33N 36°41' W 029°46'1717.2
2016-Jul-10 19:33N 36°49' W 029°26'1717.0
2016-Jul-10 18:33N 36°57' W 029°08'1716.8
2016-Jul-10 17:34N 37°05' W 028°49'1616.3
2016-Jul-10 16:33N 37°12' W 028°31'1616.2
2016-Jul-10 15:33N 37°19' W 028°13'1616.3
2016-Jul-10 14:34N 37°27' W 027°55'1616.4
2016-Jul-10 13:33N 37°35' W 027°37'1616.4
2016-Jul-10 12:33N 37°42' W 027°18'1716.5
2016-Jul-10 11:33N 37°50' W 026°60'1716.6
2016-Jul-10 10:33N 37°58' W 026°41'1616.1
2016-Jul-10 09:33N 38°03' W 026°21'1717.1
2016-Jul-10 08:33N 38°09' W 026°01'1717.4
2016-Jul-10 07:33N 38°16' W 025°41'1716.7
2016-Jul-10 06:33N 38°23' W 025°21'1716.8
2016-Jul-10 05:33N 38°29' W 025°02'1616.4
2016-Jul-10 04:33N 38°36' W 024°42'1616.5
2016-Jul-10 03:33N 38°42' W 024°23'1716.6
2016-Jul-10 02:32N 38°49' W 024°03'  
2016-Jul-07 15:26N 48°27' W 006°26'1716.2
2016-Jul-07 14:25N 48°37' W 006°05'1517.0
2016-Jul-07 13:32N 48°49' W 005°52'1717.5
2016-Jul-07 12:32N 49°00' W 005°32'1515.5
2016-Jul-07 11:33N 49°08' W 005°11'1818.0
2016-Jul-07 10:33N 49°17' W 004°48'2417.3
2016-Jul-07 09:10N 49°29' W 004°16'1016.3
2016-Jul-07 08:33N 49°34' W 004°03'1615.6
2016-Jul-07 07:30N 49°42' W 003°41'1515.7
2016-Jul-07 06:33N 49°49' W 003°21'1716.7
2016-Jul-07 05:33N 49°58' W 002°58'1918.5
2016-Jul-07 04:33N 50°02' W 002°30'2020.5
2016-Jul-07 03:33N 50°08' W 001°59'2120.9
2016-Jul-07 02:33N 50°13' W 001°28'2019.6
2016-Jul-07 01:33N 50°18' W 000°58'1717.3
2016-Jul-07 00:33N 50°23' W 000°32'1616.3
2016-Jul-06 23:33N 50°27' W 000°07'1515.1
2016-Jul-06 22:33N 50°31' E 000°16'1615.0
2016-Jul-06 21:29N 50°36' E 000°40'1617.0
2016-Jul-06 20:32N 50°46' E 001°00'1818.9
2016-Jul-06 19:33N 50°58' E 001°22'1919.0
2016-Jul-06 18:33N 51°12' E 001°43'1716.8
2016-Jul-06 17:33N 51°25' E 001°60'1616.1
2016-Jul-06 16:33N 51°22' E 002°25'1313.0
2016-Jul-06 15:33N 51°24' E 002°46'1212.0
2016-Jul-06 14:34N 51°24' E 003°05'1312.9
2016-Jul-06 13:33N 51°25' E 003°26'10 9.9
2016-Jul-06 12:33N 51°28' E 003°41'1 1.4
2016-Jul-06 11:33N 51°27' E 003°44'0 0.0
2016-Jul-06 10:33N 51°27' E 003°44'0 0.0
2016-Jul-06 09:33N 51°27' E 003°44'0 0.0
2016-Jul-06 08:33N 51°27' E 003°44'0 0.0
2016-Jul-06 07:33N 51°27' E 003°44'0 0.0
2016-Jul-06 06:33N 51°27' E 003°44'0 0.0
2016-Jul-06 05:33N 51°27' E 003°44'1 1.1
2016-Jul-06 04:33N 51°27' E 003°42'6 6.2
2016-Jul-06 03:33N 51°27' E 003°32'1110.8
2016-Jul-06 02:33N 51°36' E 003°22'1010.0
2016-Jul-06 01:33N 51°45' E 003°15'3 2.7
2016-Jul-06 00:29N 51°47' E 003°18'0 0.1
2016-Jul-05 23:32N 51°47' E 003°18'0 0.0
2016-Jul-05 22:29N 51°47' E 003°18'0 0.0
2016-Jul-05 21:20N 51°47' E 003°18'0 0.0
2016-Jul-05 20:23N 51°47' E 003°18'0 0.0
2016-Jul-05 19:26N 51°47' E 003°18'0 0.0
2016-Jul-05 18:29N 51°47' E 003°18'0 0.0
2016-Jul-05 13:14N 51°47' E 003°19'0 0.0
2016-Jul-05 12:29N 51°47' E 003°19'0 0.1
2016-Jul-05 11:32N 51°47' E 003°19'0 0.1
2016-Jul-05 10:26N 51°47' E 003°18'0 0.0
2016-Jul-05 09:29N 51°47' E 003°18'0 0.0
2016-Jul-05 08:32N 51°47' E 003°18'0 0.1
2016-Jul-05 07:32N 51°47' E 003°19'0 0.0
2016-Jul-05 06:23N 51°47' E 003°19'0 0.0
2016-Jul-05 03:26N 51°47' E 003°18'0 0.0
2016-Jul-05 02:14N 51°47' E 003°18'0 0.0
2016-Jul-05 00:08N 51°47' E 003°19'0 0.0
2016-Jul-04 23:17N 51°47' E 003°18'0 0.2
2016-Jul-04 22:32N 51°47' E 003°18'0 0.1
2016-Jul-04 21:32N 51°47' E 003°18'0 0.0
2016-Jul-04 20:32N 51°47' E 003°18'0 0.1
2016-Jul-04 19:32N 51°47' E 003°18'0 0.2
2016-Jul-04 18:29N 51°47' E 003°18'0 0.0
2016-Jul-04 17:17N 51°47' E 003°18'0 0.0
2016-Jul-04 16:32N 51°47' E 003°18'0 0.0
2016-Jul-04 15:32N 51°47' E 003°18'0 0.0
2016-Jul-04 14:32N 51°47' E 003°18'0 0.0
2016-Jul-04 13:32N 51°47' E 003°18'0 0.0
2016-Jul-04 12:17N 51°47' E 003°18'0 0.0
2016-Jul-04 11:26N 51°47' E 003°19'0 0.1
2016-Jul-04 08:32N 51°47' E 003°18'0 0.0
2016-Jul-04 07:23N 51°47' E 003°18'0 0.0
2016-Jul-04 06:32N 51°47' E 003°18'0 0.1
2016-Jul-04 04:29N 51°47' E 003°18'0 0.0
2016-Jul-04 03:32N 51°47' E 003°18'0 0.0
2016-Jul-04 02:11N 51°47' E 003°18'0 0.0
2016-Jul-04 01:32N 51°47' E 003°18'0 0.0
2016-Jul-04 00:32N 51°47' E 003°18'0 0.0
2016-Jul-03 23:29N 51°47' E 003°19'0 0.1
2016-Jul-03 22:26N 51°47' E 003°18'0 0.1
2016-Jul-03 21:29N 51°47' E 003°18'0 0.0
2016-Jul-03 20:32N 51°47' E 003°18'0 0.0
2016-Jul-03 19:32N 51°47' E 003°18'0 0.0
2016-Jul-03 18:26N 51°47' E 003°18'0 0.2
2016-Jul-03 17:32N 51°47' E 003°18'0 0.0
2016-Jul-03 16:32N 51°47' E 003°18'0 0.0
2016-Jul-03 15:32N 51°47' E 003°18'0 0.0
2016-Jul-03 14:32N 51°47' E 003°18'0 0.0
2016-Jul-03 12:25N 51°47' E 003°18'0 0.0
2016-Jul-02 22:04N 51°47' E 003°19'0 0.0
2016-Jul-02 18:19N 51°47' E 003°18'2211.0
2016-Jul-02 16:17N 52°09' E 003°22'6213.0
2016-Jul-02 11:30N 53°03' E 004°13'1415.1
2016-Jul-02 10:33N 53°15' E 004°27'3416.7
2016-Jul-02 08:31N 53°47' E 004°46'1616.7
2016-Jul-02 07:33N 54°02' E 004°56'1716.6
2016-Jul-02 06:33N 54°17' E 005°07'27115.7
2016-Jul-01 13:16N 57°48' E 010°12'1115.9
2016-Jul-01 12:33N 57°49' E 010°34'9 7.3
2016-Jul-01 11:17N 57°39' E 010°36'0 0.2
2016-Jul-01 10:27N 57°40' E 010°36'0 0.0
2016-Jul-01 09:24N 57°40' E 010°36'0 0.0
2016-Jul-01 08:33N 57°40' E 010°36'0 0.0
2016-Jul-01 04:33N 57°40' E 010°36'0 0.0
2016-Jul-01 03:30N 57°40' E 010°36'0 0.0
2016-Jul-01 01:18N 57°40' E 010°36'  

Dump ship's entire track history